Time;durP1;ratioP1;P1;durP2;ratioP2;P2;SDS_P1;SDS_P2;PMS_P1;PMS_P2;Temp;Humidity;BMP_temperature;BMP_pressure;BME280_temperature;BME280_humidity;BME280_pressure;Samples;Min_cycle;Max_cycle;Signal;HPM_P1;HPM_P2
2024/02/01 00:03:12;;;;;;;0.00;0.00;;;;;;;-145.06;100.00;54418.97;10428747;28;20293;-68
2024/02/01 00:08:12;;;;;;;0.00;0.00;;;;;;;-145.06;100.00;54404.78;10413504;28;20022;-68
2024/02/01 00:13:12;;;;;;;0.00;0.00;;;;;;;-145.06;100.00;54406.81;10411796;28;20037;-68
2024/02/01 00:18:13;;;;;;;0.00;0.00;;;;;;;-145.06;100.00;54402.75;10417188;28;20014;-68
2024/02/01 00:23:13;;;;;;;0.00;0.00;;;;;;;-145.06;100.00;54394.66;10410813;28;20031;-68
2024/02/01 00:28:13;;;;;;;0.00;0.00;;;;;;;-145.06;100.00;54416.94;10413396;28;20042;-68
2024/02/01 00:33:14;;;;;;;0.08;0.08;;;;;;;-145.06;100.00;54423.00;10413334;28;20026;-68
2024/02/01 00:38:14;;;;;;;0.10;0.10;;;;;;;-145.06;100.00;54423.00;10416478;28;20022;-68
2024/02/01 00:43:15;;;;;;;0.00;0.00;;;;;;;-145.06;100.00;54441.25;10415705;28;20075;-68
2024/02/01 00:48:16;;;;;;;0.00;0.00;;;;;;;-145.06;100.00;54447.31;10418829;28;20021;-68
2024/02/01 00:53:16;;;;;;;0.00;0.00;;;;;;;-145.06;100.00;54477.69;10413108;28;20067;-68
2024/02/01 00:58:16;;;;;;;0.10;0.10;;;;;;;-145.06;100.00;54463.53;10414223;28;20435;-69
2024/02/01 01:03:17;;;;;;;0.10;0.10;;;;;;;-145.06;100.00;54483.78;10410077;28;20101;-68
2024/02/01 01:08:17;;;;;;;0.00;0.00;;;;;;;-145.06;100.00;54499.97;10405807;28;20051;-68
2024/02/01 01:13:17;;;;;;;0.00;0.00;;;;;;;-145.06;100.00;54550.63;10416063;28;20025;-68
2024/02/01 01:18:18;;;;;;;0.00;0.00;;;;;;;-145.06;100.00;54589.09;10413043;28;20052;-68
2024/02/01 01:23:18;;;;;;;0.00;0.00;;;;;;;-145.06;100.00;54625.56;10408607;28;20127;-68
2024/02/01 01:28:18;;;;;;;0.03;0.03;;;;;;;-145.06;100.00;54649.88;10410234;28;20028;-69
2024/02/01 01:33:18;;;;;;;0.00;0.00;;;;;;;-145.06;100.00;54716.72;10412382;28;20038;-69
2024/02/01 01:38:19;;;;;;;0.10;0.10;;;;;;;-145.06;100.00;54734.94;10402238;28;20041;-69
2024/02/01 01:43:19;;;;;;;0.00;0.00;;;;;;;-145.06;100.00;54779.50;10417926;28;20033;-68
2024/02/01 01:48:19;;;;;;;0.00;0.00;;;;;;;-145.06;100.00;54834.19;10410530;28;20087;-69
2024/02/01 01:53:20;;;;;;;0.00;0.00;;;;;;;-145.06;100.00;54876.72;10410883;28;20423;-68
2024/02/01 01:58:22;;;;;;;0.08;0.08;;;;;;;-145.06;100.00;54880.78;10402671;28;20060;-69
2024/02/01 02:03:29;;;;;;;0.00;0.00;;;;;;;-145.06;100.00;54939.53;10409260;28;20032;-68
2024/02/01 02:08:29;;;;;;;0.10;0.10;;;;;;;-145.06;100.00;54937.50;10414294;28;20028;-68
2024/02/01 02:13:29;;;;;;;0.00;0.00;;;;;;;-145.06;100.00;54959.78;10415639;28;20036;-69
2024/02/01 02:18:30;;;;;;;0.00;0.00;;;;;;;-145.06;100.00;54992.19;10415450;28;20025;-69
2024/02/01 02:23:30;;;;;;;0.10;0.10;;;;;;;-145.06;100.00;55050.94;10409231;28;20406;-69
2024/02/01 02:28:35;;;;;;;0.00;0.00;;;;;;;-145.06;100.00;55063.09;10416290;28;20475;-69
2024/02/01 02:33:36;;;;;;;0.00;0.00;;;;;;;-145.06;100.00;55079.31;10419907;28;20121;-68
2024/02/01 02:38:38;;;;;;;0.00;0.00;;;;;;;-145.06;100.00;55081.34;10438374;28;20096;-68
2024/02/01 02:43:39;;;;;;;0.00;0.00;;;;;;;-145.06;100.00;55138.06;10420507;28;20094;-68
2024/02/01 02:48:39;;;;;;;0.00;0.00;;;;;;;-145.06;100.00;55162.38;10415688;28;20075;-68
2024/02/01 02:53:39;;;;;;;0.10;0.10;;;;;;;-145.06;100.00;55158.31;10422013;28;20227;-68
2024/02/01 02:58:40;;;;;;;0.00;0.00;;;;;;;-145.06;100.00;55154.25;10426117;28;20104;-69
2024/02/01 03:03:40;;;;;;;0.00;0.00;;;;;;;-145.06;100.00;55113.75;10439956;28;20399;-68
2024/02/01 03:08:41;;;;;;;0.00;0.00;;;;;;;-145.06;100.00;55083.34;10413179;28;20026;-69
2024/02/01 03:13:45;;;;;;;0.00;0.00;;;;;;;-145.06;100.00;55034.75;10414634;28;20119;-68
2024/02/01 03:18:47;;;;;;;0.10;0.10;;;;;;;-145.06;100.00;54980.03;10416064;28;20108;-68
2024/02/01 03:23:48;;;;;;;0.00;0.00;;;;;;;-145.06;100.00;54921.28;10421936;28;20028;-68
2024/02/01 03:28:49;;;;;;;0.10;0.10;;;;;;;-145.06;100.00;54933.44;10419686;28;20021;-68
2024/02/01 03:33:49;;;;;;;0.00;0.00;;;;;;;-145.06;100.00;54886.88;10421888;28;20459;-68
2024/02/01 03:38:49;;;;;;;0.00;0.00;;;;;;;-145.06;100.00;54933.44;10416990;28;20033;-68
2024/02/01 03:43:50;;;;;;;0.00;0.00;;;;;;;-145.06;100.00;54939.53;10426516;28;20048;-68
2024/02/01 03:48:50;;;;;;;0.00;0.00;;;;;;;-145.06;100.00;54882.81;10429166;28;20100;-68
2024/02/01 03:53:50;;;;;;;0.05;0.05;;;;;;;-145.06;100.00;54921.28;10430867;28;20033;-68
2024/02/01 03:58:51;;;;;;;0.00;0.00;;;;;;;-145.06;100.00;54927.38;10433020;28;20104;-68
2024/02/01 04:03:51;;;;;;;0.10;0.10;;;;;;;-145.06;100.00;54913.19;10417543;28;20279;-68
2024/02/01 04:08:51;;;;;;;0.10;0.10;;;;;;;-145.06;100.00;54870.66;10436870;28;20067;-68
2024/02/01 04:13:52;;;;;;;0.00;0.00;;;;;;;-145.06;100.00;54866.59;10434535;28;20039;-68
2024/02/01 04:18:52;;;;;;;0.00;0.00;;;;;;;-145.06;100.00;54876.72;10420285;28;20470;-68
2024/02/01 04:23:53;;;;;;;0.00;0.00;;;;;;;-145.06;100.00;54864.59;10420145;28;20083;-68
2024/02/01 04:28:53;;;;;;;0.00;0.00;;;;;;;-145.06;100.00;54850.41;10421578;28;20108;-68
2024/02/01 04:33:57;;;;;;;0.00;0.00;;;;;;;-145.06;100.00;54864.59;10411241;28;20017;-68
2024/02/01 04:38:58;;;;;;;0.00;0.00;;;;;;;-145.06;100.00;54868.63;10422336;28;20502;-68
2024/02/01 04:43:58;;;;;;;0.00;0.00;;;;;;;-145.06;100.00;54860.53;10427104;28;20075;-68
2024/02/01 04:48:59;;;;;;;0.10;0.10;;;;;;;-145.06;100.00;54856.47;10418683;28;20051;-68
2024/02/01 04:53:59;;;;;;;0.10;0.10;;;;;;;-145.06;100.00;54858.50;10424799;28;20022;-68
2024/02/01 04:58:59;;;;;;;0.00;0.00;;;;;;;-145.06;100.00;54868.63;10434940;28;20025;-68
2024/02/01 05:03:59;;;;;;;0.00;0.00;;;;;;;-145.06;100.00;54907.13;10425497;28;20041;-68
2024/02/01 05:09:00;;;;;;;0.00;0.00;;;;;;;-145.06;100.00;54846.34;10418604;28;20033;-68
2024/02/01 05:14:00;;;;;;;0.00;0.00;;;;;;;-145.06;100.00;54807.88;10419087;28;20065;-68
2024/02/01 05:19:01;;;;;;;0.00;0.00;;;;;;;-145.06;100.00;54834.19;10427113;28;20033;-68
2024/02/01 05:24:01;;;;;;;0.00;0.00;;;;;;;-145.06;100.00;54805.84;10416962;28;20022;-68
2024/02/01 05:29:01;;;;;;;0.00;0.00;;;;;;;-145.06;100.00;54777.47;10418851;28;20030;-68
2024/02/01 05:34:02;;;;;;;0.00;0.00;;;;;;;-145.06;100.00;54809.88;10412592;28;20052;-68
2024/02/01 05:39:05;;;;;;;0.00;0.00;;;;;;;-145.06;100.00;54751.16;10417232;28;20415;-68
2024/02/01 05:44:10;;;;;;;0.00;0.00;;;;;;;-145.06;100.00;54771.41;10417048;28;20032;-68
2024/02/01 05:49:12;;;;;;;0.00;0.00;;;;;;;-145.06;100.00;54763.31;10429650;28;20074;-68
2024/02/01 05:54:13;;;;;;;0.00;0.00;;;;;;;-145.06;100.00;54822.03;10413974;28;20434;-68
2024/02/01 05:59:15;;;;;;;0.00;0.00;;;;;;;-145.06;100.00;54793.69;10415501;28;20014;-68
2024/02/01 06:04:16;;;;;;;0.00;0.00;;;;;;;-145.06;100.00;54834.19;10422659;28;20417;-68
2024/02/01 06:09:16;;;;;;;0.00;0.00;;;;;;;-145.06;100.00;54830.16;10432634;28;20054;-69
2024/02/01 06:14:17;;;;;;;0.00;0.00;;;;;;;-145.06;100.00;54876.72;10424175;28;20264;-68
2024/02/01 06:19:18;;;;;;;0.00;0.00;;;;;;;-145.06;100.00;54884.84;10419954;28;20105;-69
2024/02/01 06:24:18;;;;;;;0.00;0.00;;;;;;;-145.06;100.00;54876.72;10421331;28;20299;-69
2024/02/01 06:29:19;;;;;;;0.00;0.00;;;;;;;-145.06;100.00;54905.09;10427127;28;20065;-69
2024/02/01 06:34:27;;;;;;;0.00;0.00;;;;;;;-145.06;100.00;54866.59;10418325;28;20021;-68
2024/02/01 06:44:33;;;;;;;0.00;0.00;;;;;;;-145.06;100.00;54890.91;10450007;28;20025;-68
2024/02/01 06:54:49;;;;;;;0.00;0.00;;;;;;;-145.06;100.00;54771.41;10425456;28;20065;-69
2024/02/01 07:05:11;;;;;;;0.00;0.00;;;;;;;-145.06;100.00;54771.41;10432074;28;20029;-68
2024/02/01 07:10:16;;;;;;;0.00;0.00;;;;;;;-145.06;100.00;54708.59;10419931;28;20063;-67
2024/02/01 07:15:30;;;;;;;0.00;0.00;;;;;;;-145.06;100.00;54694.44;10417353;28;20025;-68
2024/02/01 07:20:46;;;;;;;0.00;0.00;;;;;;;-145.06;100.00;54666.06;10419504;28;20036;-68
2024/02/01 07:26:00;;;;;;;0.00;0.00;;;;;;;-145.06;100.00;54662.03;10408063;28;20022;-67
2024/02/01 07:57:58;;;;;;;0.00;0.00;;;;;;;-145.06;100.00;54467.56;10418557;28;20033;-68
2024/02/01 08:03:00;;;;;;;0.00;0.00;;;;;;;-145.06;100.00;54410.84;10403371;28;20057;-68
2024/02/01 08:08:01;;;;;;;0.00;0.00;;;;;;;-145.06;100.00;54394.66;10409166;28;20231;-69
2024/02/01 08:13:07;;;;;;;0.00;0.00;;;;;;;-145.06;100.00;54321.75;10403595;28;20131;-69
2024/02/01 08:18:11;;;;;;;0.00;0.00;;;;;;;-145.06;100.00;54275.16;10410897;28;20067;-69
2024/02/01 08:23:18;;;;;;;0.00;0.00;;;;;;;-145.06;100.00;54206.28;10403803;28;20124;-69
2024/02/01 08:28:20;;;;;;;0.10;0.10;;;;;;;-145.06;100.00;54159.72;10407705;28;20097;-69
2024/02/01 08:33:20;;;;;;;0.00;0.00;;;;;;;-145.06;100.00;54143.50;10407210;28;20029;-68
2024/02/01 08:38:21;;;;;;;0.05;0.05;;;;;;;-145.06;100.00;54038.19;10406875;28;20453;-69
2024/02/01 08:43:21;;;;;;;0.00;0.00;;;;;;;-145.06;100.00;54038.19;10411139;28;20455;-69
2024/02/01 08:48:24;;;;;;;0.10;0.10;;;;;;;-145.06;100.00;54009.84;10409420;28;20028;-68
2024/02/01 08:53:25;;;;;;;0.00;0.00;;;;;;;-145.06;100.00;54017.94;10411886;28;20025;-69
2024/02/01 08:58:26;;;;;;;0.10;0.10;;;;;;;-145.06;100.00;53969.34;10409028;28;20136;-69
2024/02/01 09:03:29;;;;;;;0.00;0.00;;;;;;;-145.06;100.00;53945.03;10403811;28;20017;-68
2024/02/01 09:08:35;;;;;;;0.10;0.10;;;;;;;-145.06;100.00;53932.88;10408492;28;20025;-68
2024/02/01 09:13:36;;;;;;;0.10;0.10;;;;;;;-145.06;100.00;53892.38;10408707;28;20096;-69
2024/02/01 09:18:36;;;;;;;0.10;0.10;;;;;;;-145.06;100.00;53900.50;10408465;28;20391;-68
2024/02/01 09:23:37;;;;;;;0.10;0.10;;;;;;;-145.06;99.49;53918.72;10408721;28;20053;-69
2024/02/01 09:28:40;;;;;;;0.10;0.10;;;;;;;-145.06;99.74;53945.03;10404427;28;20123;-68
2024/02/01 09:33:43;;;;;;;0.10;0.10;;;;;;;-145.06;100.00;53961.25;10422120;28;20048;-69
2024/02/01 09:38:43;;;;;;;0.00;0.00;;;;;;;-145.06;100.00;53959.22;10402293;28;20024;-67
2024/02/01 09:43:48;;;;;;;0.10;0.10;;;;;;;-145.06;100.00;53969.34;10408130;28;20026;-69
2024/02/01 09:48:49;;;;;;;0.10;0.10;;;;;;;-145.06;100.00;53963.25;10407242;28;20493;-69
2024/02/01 09:53:50;;;;;;;0.00;0.00;;;;;;;-145.06;100.00;53999.72;10410295;28;20104;-69
2024/02/01 09:58:51;;;;;;;0.03;0.03;;;;;;;-145.06;100.00;53979.47;10405073;28;20406;-69
2024/02/01 10:03:52;;;;;;;0.00;0.00;;;;;;;-145.06;100.00;54001.75;10414393;28;20083;-67
2024/02/01 10:08:53;;;;;;;0.10;0.10;;;;;;;-145.06;100.00;53999.72;10404458;28;20052;-68
2024/02/01 10:13:57;;;;;;;0.00;0.00;;;;;;;-145.06;100.00;53993.66;10422433;28;20444;-68
2024/02/01 10:19:08;;;;;;;0.10;0.10;;;;;;;-145.06;100.00;53999.72;10443793;28;20017;-68
2024/02/01 10:24:10;;;;;;;0.10;0.10;;;;;;;-145.06;100.00;53969.34;10439120;28;20545;-67
2024/02/01 10:29:17;;;;;;;0.10;0.10;;;;;;;-145.06;100.00;53985.53;10409488;28;20064;-68
2024/02/01 10:34:20;;;;;;;0.00;0.00;;;;;;;-145.06;100.00;54011.88;10408945;28;20067;-67
2024/02/01 10:39:25;;;;;;;0.10;0.10;;;;;;;-145.06;100.00;54001.75;10425093;28;20101;-67
2024/02/01 10:44:32;;;;;;;0.10;0.10;;;;;;;-145.06;100.00;54036.19;10437211;28;20046;-66
2024/02/01 10:49:37;;;;;;;0.10;0.10;;;;;;;-145.06;100.00;54026.06;10448107;28;20021;-66
2024/02/01 10:54:37;;;;;;;;;;;;;;;-145.06;99.36;54066.56;10445896;28;20021;-67
2024/02/01 10:59:39;;;;;;;0.10;0.10;;;;;;;-145.06;100.00;54022.00;10442342;28;19909;-66
2024/02/01 11:04:39;;;;;;;0.10;0.10;;;;;;;-145.06;100.00;54044.28;10448528;28;20025;-66
2024/02/01 11:09:43;;;;;;;0.10;0.10;;;;;;;-145.06;99.40;54013.91;10456506;28;20391;-67
2024/02/01 11:14:48;;;;;;;0.05;0.05;;;;;;;-145.06;100.00;54046.31;10456446;28;20029;-67
2024/02/01 11:19:50;;;;;;;0.10;0.10;;;;;;;-145.06;96.31;54064.53;10452967;28;20047;-66
2024/02/01 11:25:04;;;;;;;0.00;0.00;;;;;;;-145.06;97.48;54062.50;10449145;28;20154;-66
2024/02/01 11:30:19;;;;;;;0.00;0.00;;;;;;;-145.06;94.80;54054.41;10414953;28;20029;-66
2024/02/01 11:35:22;;;;;;;0.10;0.10;;;;;;;-145.06;93.01;54022.00;10431292;28;20510;-66
2024/02/01 11:40:23;;;;;;;0.08;0.08;;;;;;;-145.06;92.49;54036.19;10428298;28;20477;-66
2024/02/01 11:45:24;;;;;;;0.00;0.00;;;;;;;-145.06;92.90;54058.44;10452218;28;20115;-67
2024/02/01 11:50:24;;;;;;;0.00;0.00;;;;;;;-145.06;92.77;54028.06;10431892;28;20100;-67
2024/02/01 11:55:29;;;;;;;0.10;0.10;;;;;;;-145.06;92.23;54064.53;10456836;28;20150;-67
2024/02/01 12:00:30;;;;;;;0.10;0.10;;;;;;;-145.06;93.07;54086.81;10456466;28;20074;-67
2024/02/01 12:05:32;;;;;;;0.00;0.00;;;;;;;-145.06;93.83;54034.16;10428816;28;20029;-68
2024/02/01 12:10:34;;;;;;;0.00;0.00;;;;;;;-145.06;92.86;54080.72;10409805;28;20022;-68
2024/02/01 12:15:36;;;;;;;0.00;0.00;;;;;;;-145.06;93.33;54052.38;10410648;28;20033;-67
2024/02/01 12:20:37;;;;;;;0.10;0.10;;;;;;;-145.06;94.73;54046.31;10410878;28;20053;-67
2024/02/01 12:25:37;;;;;;;0.10;0.10;;;;;;;-145.06;93.95;54066.56;10410702;28;20428;-67
2024/02/01 12:30:44;;;;;;;0.00;0.00;;;;;;;-145.06;95.19;54034.16;10409841;28;20025;-67
2024/02/01 12:35:46;;;;;;;0.10;0.10;;;;;;;-145.06;96.39;54054.41;10408612;28;20044;-67
2024/02/01 12:40:46;;;;;;;0.00;0.00;;;;;;;-145.06;96.05;54060.47;10409226;28;20028;-67
2024/02/01 12:45:47;;;;;;;0.10;0.10;;;;;;;-145.06;95.81;54074.66;10409134;28;20364;-67
2024/02/01 12:50:47;;;;;;;0.00;0.00;;;;;;;-145.06;95.98;54066.56;10408929;28;20108;-67
2024/02/01 12:55:48;;;;;;;0.10;0.10;;;;;;;-145.06;95.67;54078.72;10409503;28;20025;-67
2024/02/01 13:00:48;;;;;;;0.10;0.10;;;;;;;-145.06;95.82;54103.00;10408642;28;20380;-66
2024/02/01 13:05:49;;;;;;;0.10;0.10;;;;;;;-145.06;96.99;54062.50;10409129;28;20037;-69
2024/02/01 13:10:49;;;;;;;0.10;0.10;;;;;;;-145.06;97.97;54070.59;10408729;28;20427;-66
2024/02/01 13:15:51;;;;;;;0.00;0.00;;;;;;;-145.06;97.95;54078.72;10408686;28;20022;-67
2024/02/01 13:20:52;;;;;;;0.08;0.08;;;;;;;-145.06;97.87;54092.88;10407533;28;20033;-67
2024/02/01 13:25:54;;;;;;;0.00;0.00;;;;;;;-145.06;98.79;54074.66;10408548;28;20025;-67
2024/02/01 13:30:57;;;;;;;0.10;0.10;;;;;;;-145.06;98.08;54107.06;10405512;28;20057;-67
2024/02/01 13:35:57;;;;;;;0.10;0.10;;;;;;;-145.06;97.65;54084.78;10407288;28;20519;-67
2024/02/01 13:40:58;;;;;;;0.10;0.10;;;;;;;-145.06;95.57;54103.00;10407791;28;20037;-67
2024/02/01 13:45:59;;;;;;;0.10;0.10;;;;;;;-145.06;93.90;54131.34;10411139;28;20025;-67
2024/02/01 13:51:03;;;;;;;0.10;0.10;;;;;;;-145.06;94.92;54113.13;10406955;28;20014;-67
2024/02/01 13:56:04;;;;;;;0.00;0.00;;;;;;;-145.06;95.14;54133.38;10407182;28;20083;-68
2024/02/01 14:01:04;;;;;;;0.10;0.10;;;;;;;-145.06;95.90;54137.44;10406363;28;20037;-67
2024/02/01 14:06:05;;;;;;;0.00;0.00;;;;;;;-145.06;97.71;54133.38;10403037;28;20066;-68
2024/02/01 14:11:05;;;;;;;0.10;0.10;;;;;;;-145.06;98.57;54105.03;10403489;28;20072;-67
2024/02/01 14:16:07;;;;;;;0.10;0.10;;;;;;;-145.06;98.92;54159.72;10403852;28;20056;-68
2024/02/01 14:21:08;;;;;;;0.10;0.10;;;;;;;-145.06;99.01;54149.59;10406037;28;20071;-67
2024/02/01 14:26:08;;;;;;;0.00;0.00;;;;;;;-145.06;98.54;54159.72;10406872;28;20046;-68
2024/02/01 14:31:09;;;;;;;0.00;0.00;;;;;;;-145.06;98.79;54145.53;10420221;28;20543;-67
2024/02/01 14:36:09;;;;;;;0.03;0.03;;;;;;;-145.06;99.19;54151.63;10413395;28;20355;-67
2024/02/01 14:41:10;;;;;;;0.05;0.05;;;;;;;-145.06;99.95;54151.63;10416266;28;20025;-67
2024/02/01 14:46:12;;;;;;;0.08;0.08;;;;;;;-145.06;100.00;54151.63;10416073;28;20022;-67
2024/02/01 14:51:12;;;;;;;0.10;0.10;;;;;;;-145.06;100.00;54143.50;10438224;28;20128;-67
2024/02/01 14:56:13;;;;;;;0.10;0.10;;;;;;;-145.06;100.00;54171.88;10413148;28;20188;-67
2024/02/01 15:01:13;;;;;;;0.00;0.00;;;;;;;-145.06;100.00;54167.81;10422270;28;20773;-67
2024/02/01 15:06:14;;;;;;;0.00;0.00;;;;;;;-145.06;100.00;54159.72;10427157;28;20486;-67
2024/02/01 15:11:17;;;;;;;0.10;0.10;;;;;;;-145.06;100.00;54190.09;10410751;28;20021;-67
2024/02/01 15:16:18;;;;;;;0.00;0.00;;;;;;;-145.06;100.00;54151.63;10411731;28;20014;-67
2024/02/01 15:21:18;;;;;;;0.10;0.10;;;;;;;-145.06;100.00;54139.47;10414553;28;20021;-67
2024/02/01 15:26:19;;;;;;;0.00;0.00;;;;;;;-145.06;100.00;54198.19;10411215;28;20033;-68
2024/02/01 15:31:22;;;;;;;0.10;0.10;;;;;;;-145.06;100.00;54179.97;10412224;28;20044;-68
2024/02/01 15:36:24;;;;;;;0.00;0.00;;;;;;;-145.06;100.00;54196.16;10410788;28;20030;-67
2024/02/01 15:41:24;;;;;;;0.00;0.00;;;;;;;-145.06;100.00;54173.91;10412878;28;20022;-68
2024/02/01 15:46:27;;;;;;;0.03;0.03;;;;;;;-145.06;100.00;54220.47;10411129;28;20043;-68
2024/02/01 15:51:27;;;;;;;0.00;0.00;;;;;;;-145.06;100.00;54186.03;10412326;28;20479;-68
2024/02/01 15:56:28;;;;;;;0.10;0.10;;;;;;;-145.06;100.00;54220.47;10415317;28;20092;-67
2024/02/01 16:01:29;;;;;;;0.00;0.00;;;;;;;-145.06;100.00;54226.56;10411423;28;20104;-67
2024/02/01 16:06:29;;;;;;;0.00;0.00;;;;;;;-145.06;100.00;54246.81;10411331;28;20544;-67
2024/02/01 16:11:38;;;;;;;0.05;0.05;;;;;;;-145.06;100.00;54238.69;10411389;28;20092;-66
2024/02/01 16:16:42;;;;;;;0.10;0.10;;;;;;;-145.06;100.00;54260.97;10413183;28;20124;-67
2024/02/01 16:21:42;;;;;;;0.10;0.10;;;;;;;-145.06;100.00;54265.03;10412214;28;20058;-67
2024/02/01 16:26:42;;;;;;;0.08;0.08;;;;;;;-145.06;100.00;54256.94;10409901;28;20053;-67
2024/02/01 16:31:43;;;;;;;0.00;0.00;;;;;;;-145.06;100.00;54252.88;10408692;28;20514;-67
2024/02/01 16:36:57;;;;;;;0.10;0.10;;;;;;;-145.06;100.00;54279.22;10409261;28;20013;-67
2024/02/01 16:42:02;;;;;;;0.00;0.00;;;;;;;-145.06;100.00;54271.09;10408235;28;20033;-66
2024/02/01 16:47:03;;;;;;;0.00;0.00;;;;;;;-145.06;100.00;54329.84;10407977;28;20363;-67
2024/02/01 16:52:04;;;;;;;0.00;0.00;;;;;;;-145.06;100.00;54321.75;10409425;28;20025;-67
2024/02/01 16:57:07;;;;;;;0.00;0.00;;;;;;;-145.06;100.00;54309.59;10408563;28;20146;-67
2024/02/01 17:02:44;;;;;;;0.00;0.00;;;;;;;-145.06;100.00;54325.78;10409922;28;20017;-67
2024/02/01 17:07:44;;;;;;;0.00;0.00;;;;;;;-145.06;100.00;54319.72;10405872;28;20156;-67
2024/02/01 17:12:45;;;;;;;0.00;0.00;;;;;;;-145.06;100.00;54335.91;10408508;28;20025;-68
2024/02/01 17:17:45;;;;;;;0.00;0.00;;;;;;;-145.06;100.00;54337.94;10404610;28;20043;-67
2024/02/01 17:22:46;;;;;;;0.00;0.00;;;;;;;-145.06;100.00;54346.03;10407854;28;20040;-67
2024/02/01 17:27:46;;;;;;;0.00;0.00;;;;;;;-145.06;100.00;54309.59;10407963;28;20024;-67
2024/02/01 17:32:46;;;;;;;0.00;0.00;;;;;;;-145.06;100.00;54358.19;10407683;28;20260;-67
2024/02/01 17:37:47;;;;;;;0.00;0.00;;;;;;;-145.06;100.00;54370.34;10407398;28;20403;-67
2024/02/01 17:42:49;;;;;;;0.00;0.00;;;;;;;-145.06;100.00;54362.25;10407724;28;20387;-67
2024/02/01 17:47:59;;;;;;;0.00;0.00;;;;;;;-145.06;100.00;54382.50;10407115;28;20104;-67
2024/02/01 17:53:10;;;;;;;0.00;0.00;;;;;;;-145.06;100.00;54374.41;10407458;28;20013;-68
2024/02/01 17:58:23;;;;;;;0.08;0.08;;;;;;;-145.06;100.00;54378.44;10406850;28;20493;-67
2024/02/01 18:03:24;;;;;;;0.00;0.00;;;;;;;-145.06;100.00;54342.00;10405812;28;20051;-67
2024/02/01 18:08:36;;;;;;;0.00;0.00;;;;;;;-145.06;100.00;54327.81;10405343;28;20021;-67
2024/02/01 18:13:37;;;;;;;0.00;0.00;;;;;;;-145.06;100.00;54325.78;10407685;28;20040;-67
2024/02/01 18:18:40;;;;;;;0.00;0.00;;;;;;;-145.06;100.00;54362.25;10406694;28;20018;-67
2024/02/01 18:23:40;;;;;;;0.00;0.00;;;;;;;-145.06;100.00;54360.22;10406776;28;20021;-67
2024/02/01 18:28:41;;;;;;;0.00;0.00;;;;;;;-145.06;100.00;54364.28;10406323;28;20032;-67
2024/02/01 18:33:44;;;;;;;0.10;0.10;;;;;;;-145.06;100.00;54364.28;10406597;28;20491;-68
2024/02/01 18:38:55;;;;;;;0.00;0.00;;;;;;;-145.06;100.00;54364.28;10405974;28;20021;-68
2024/02/01 18:44:21;;;;;;;0.00;0.00;;;;;;;-145.06;100.00;54398.72;10404422;28;20458;-68
2024/02/01 18:49:22;;;;;;;0.00;0.00;;;;;;;-145.06;100.00;54378.44;10402147;28;20537;-68
2024/02/01 18:54:26;;;;;;;0.00;0.00;;;;;;;-145.06;100.00;54396.69;10406832;28;20063;-68
2024/02/01 18:59:29;;;;;;;0.00;0.00;;;;;;;-145.06;100.00;54398.72;10406289;28;20021;-68
2024/02/01 19:04:30;;;;;;;0.00;0.00;;;;;;;-145.06;100.00;54423.00;10406259;28;20032;-69
2024/02/01 19:09:44;;;;;;;0.00;0.00;;;;;;;-145.06;100.00;54455.41;10406040;28;20030;-68
2024/02/01 19:14:52;;;;;;;0.00;0.00;;;;;;;-145.06;100.00;54410.84;10405664;28;20542;-68
2024/02/01 19:19:54;;;;;;;0.00;0.00;;;;;;;-145.06;100.00;54451.38;10409406;28;20036;-68
2024/02/01 19:24:56;;;;;;;0.00;0.00;;;;;;;-145.06;100.00;54459.47;10413343;28;20025;-68
2024/02/01 19:30:02;;;;;;;0.05;0.05;;;;;;;-145.06;100.00;54441.25;10413084;28;20091;-68
2024/02/01 19:35:03;;;;;;;0.00;0.00;;;;;;;-145.06;100.00;54435.16;10413508;28;20407;-68
2024/02/01 19:40:05;;;;;;;0.00;0.00;;;;;;;-145.06;100.00;54406.81;10412049;28;20104;-68
2024/02/01 19:45:08;;;;;;;0.00;0.00;;;;;;;-145.06;100.00;54443.28;10412516;28;20064;-68
2024/02/01 19:50:10;;;;;;;0.00;0.00;;;;;;;-145.06;100.00;54459.47;10411689;28;20494;-68
2024/02/01 19:55:10;;;;;;;0.00;0.00;;;;;;;-145.06;100.00;54479.72;10411275;28;20021;-68
2024/02/01 20:00:11;;;;;;;0.00;0.00;;;;;;;-145.06;100.00;54463.53;10411386;28;20222;-69
2024/02/01 20:05:11;;;;;;;0.00;0.00;;;;;;;-145.06;100.00;54524.28;10411474;28;20038;-68
2024/02/01 20:10:12;;;;;;;0.00;0.00;;;;;;;-145.06;100.00;54512.13;10411116;28;20027;-68
2024/02/01 20:15:13;;;;;;;0.00;0.00;;;;;;;-145.06;100.00;54506.06;10410775;28;20355;-68
2024/02/01 20:20:20;;;;;;;0.00;0.00;;;;;;;-145.06;100.00;54504.03;10409201;28;20466;-68
2024/02/01 20:25:24;;;;;;;0.00;0.00;;;;;;;-145.06;100.00;54554.66;10410474;28;20079;-69
2024/02/01 20:30:25;;;;;;;0.00;0.00;;;;;;;-145.06;100.00;54554.66;10408674;28;20056;-68
2024/02/01 20:35:29;;;;;;;0.00;0.00;;;;;;;-145.06;100.00;54568.84;10409999;28;20025;-68
2024/02/01 20:40:36;;;;;;;0.00;0.00;;;;;;;-145.06;100.00;54556.69;10408146;28;20094;-69
2024/02/01 20:45:38;;;;;;;0.00;0.00;;;;;;;-145.06;100.00;54581.00;10409626;28;20033;-69
2024/02/01 20:50:39;;;;;;;0.00;0.00;;;;;;;-145.06;100.00;54631.63;10409264;28;20056;-69
2024/02/01 20:55:45;;;;;;;0.00;0.00;;;;;;;-145.06;100.00;54603.28;10408936;28;20064;-69
2024/02/01 21:00:46;;;;;;;0.00;0.00;;;;;;;-145.06;100.00;54601.25;10408922;28;20127;-68
2024/02/01 21:05:52;;;;;;;0.00;0.00;;;;;;;-145.06;100.00;54631.63;10408392;28;20032;-68
2024/02/01 21:10:53;;;;;;;0.00;0.00;;;;;;;-145.06;100.00;54694.44;10408188;28;20116;-69
2024/02/01 21:15:54;;;;;;;0.00;0.00;;;;;;;-145.06;100.00;54763.31;10408156;28;20142;-69
2024/02/01 21:21:04;;;;;;;0.00;0.00;;;;;;;-145.06;100.00;54728.88;10408212;28;20032;-68
2024/02/01 21:26:17;;;;;;;0.00;0.00;;;;;;;-145.06;100.00;54745.06;10408458;28;20504;-68
2024/02/01 21:31:21;;;;;;;0.00;0.00;;;;;;;-145.06;100.00;54759.25;10403936;28;20093;-69
2024/02/01 21:36:21;;;;;;;0.00;0.00;;;;;;;-145.06;100.00;54743.03;10407354;28;20139;-69
2024/02/01 21:41:29;;;;;;;0.00;0.00;;;;;;;-145.06;100.00;54706.59;10402778;28;20025;-69
2024/02/01 21:46:33;;;;;;;0.00;0.00;;;;;;;-145.06;100.00;54730.88;10406905;28;20018;-68
2024/02/01 21:51:34;;;;;;;0.00;0.00;;;;;;;-145.06;100.00;54722.78;10406820;28;20025;-69
2024/02/01 21:56:34;;;;;;;0.00;0.00;;;;;;;-145.06;100.00;54680.25;10407270;28;20103;-68
2024/02/01 22:01:34;;;;;;;0.00;0.00;;;;;;;-145.06;100.00;54680.25;10407009;28;20331;-68
2024/02/01 22:06:35;;;;;;;0.00;0.00;;;;;;;-145.06;100.00;54706.59;10399589;28;20313;-69
2024/02/01 22:11:36;;;;;;;0.00;0.00;;;;;;;-145.06;100.00;54674.19;10406527;28;20043;-68
2024/02/01 22:16:37;;;;;;;0.08;0.08;;;;;;;-145.06;100.00;54680.25;10405914;28;20108;-69
2024/02/01 22:21:37;;;;;;;0.10;0.10;;;;;;;-145.06;100.00;54649.88;10406626;28;20170;-69
2024/02/01 22:26:37;;;;;;;0.00;0.00;;;;;;;-145.06;100.00;54629.63;10405732;28;20649;-68
2024/02/01 22:31:38;;;;;;;0.00;0.00;;;;;;;-145.06;100.00;54603.28;10405236;28;20025;-68
2024/02/01 22:36:39;;;;;;;0.00;0.00;;;;;;;-145.06;100.00;54664.03;10405109;28;20026;-69
2024/02/01 22:41:39;;;;;;;0.10;0.10;;;;;;;-145.06;100.00;54633.66;10405560;28;20279;-69
2024/02/01 22:46:41;;;;;;;0.00;0.00;;;;;;;-145.06;100.00;54591.13;10406120;28;20021;-68
2024/02/01 22:51:41;;;;;;;0.00;0.00;;;;;;;-145.06;100.00;54621.50;10406589;28;20045;-68
2024/02/01 22:56:42;;;;;;;0.00;0.00;;;;;;;-145.06;100.00;54597.19;10413450;28;20052;-69
2024/02/01 23:01:42;;;;;;;0.10;0.10;;;;;;;-145.06;100.00;54597.19;10413568;28;20370;-69
2024/02/01 23:06:43;;;;;;;0.00;0.00;;;;;;;-145.06;100.00;54576.94;10412431;28;20030;-69
2024/02/01 23:11:44;;;;;;;0.00;0.00;;;;;;;-145.06;100.00;54609.34;10413108;28;20037;-69
2024/02/01 23:16:44;;;;;;;0.00;0.00;;;;;;;-145.06;100.00;54607.34;10411176;28;20091;-68
2024/02/01 23:21:45;;;;;;;0.00;0.00;;;;;;;-145.06;100.00;54556.69;10412803;28;20366;-68